sensor_id;sensor_type;location;lat;lon;timestamp;pressure;altitude;pressure_sealevel;temperature;humidity
11314;BME280;5712;48.858;9.206;2023-04-02T00:02:26;97354.91;;;8.81;98.64
11314;BME280;5712;48.858;9.206;2023-04-02T00:08:28;97345.19;;;8.81;98.73
11314;BME280;5712;48.858;9.206;2023-04-02T00:11:03;97352.59;;;8.76;97.94
11314;BME280;5712;48.858;9.206;2023-04-02T00:13:35;97353.53;;;8.75;98.25
11314;BME280;5712;48.858;9.206;2023-04-02T00:16:04;97352.84;;;8.73;98.24
11314;BME280;5712;48.858;9.206;2023-04-02T00:18:32;97358.91;;;8.74;98.23
11314;BME280;5712;48.858;9.206;2023-04-02T00:21:07;97361.56;;;8.74;98.53
11314;BME280;5712;48.858;9.206;2023-04-02T00:23:37;97369.59;;;8.72;98.80
11314;BME280;5712;48.858;9.206;2023-04-02T00:26:20;97373.91;;;8.73;98.25
11314;BME280;5712;48.858;9.206;2023-04-02T00:28:47;97372.09;;;8.74;98.60
11314;BME280;5712;48.858;9.206;2023-04-02T00:31:16;97371.63;;;8.69;98.97
11314;BME280;5712;48.858;9.206;2023-04-02T00:33:44;97374.13;;;8.70;98.83
11314;BME280;5712;48.858;9.206;2023-04-02T00:36:11;97380.69;;;8.65;99.01
11314;BME280;5712;48.858;9.206;2023-04-02T00:38:39;97386.69;;;8.67;99.56
11314;BME280;5712;48.858;9.206;2023-04-02T00:41:14;97384.03;;;8.67;99.43
11314;BME280;5712;48.858;9.206;2023-04-02T00:43:43;97382.63;;;8.74;98.82
11314;BME280;5712;48.858;9.206;2023-04-02T00:46:16;97386.22;;;8.73;98.42
11314;BME280;5712;48.858;9.206;2023-04-02T00:48:45;97387.19;;;8.72;98.51
11314;BME280;5712;48.858;9.206;2023-04-02T00:51:17;97390.78;;;8.71;98.89
11314;BME280;5712;48.858;9.206;2023-04-02T00:53:47;97390.78;;;8.71;99.03
11314;BME280;5712;48.858;9.206;2023-04-02T00:56:18;97389.09;;;8.70;99.45
11314;BME280;5712;48.858;9.206;2023-04-02T00:58:51;97382.97;;;8.69;99.92
11314;BME280;5712;48.858;9.206;2023-04-02T01:01:21;97390.97;;;8.68;100.00
11314;BME280;5712;48.858;9.206;2023-04-02T01:03:52;97397.00;;;8.70;100.00
11314;BME280;5712;48.858;9.206;2023-04-02T01:06:24;97391.94;;;8.67;100.00
11314;BME280;5712;48.858;9.206;2023-04-02T01:09:04;97394.56;;;8.67;100.00
11314;BME280;5712;48.858;9.206;2023-04-02T01:11:49;97400.81;;;8.66;100.00
11314;BME280;5712;48.858;9.206;2023-04-02T01:14:32;97407.88;;;8.65;100.00
11314;BME280;5712;48.858;9.206;2023-04-02T01:17:09;97405.34;;;8.64;100.00
11314;BME280;5712;48.858;9.206;2023-04-02T01:20:06;97413.97;;;8.66;100.00
11314;BME280;5712;48.858;9.206;2023-04-02T01:22:43;97409.66;;;8.65;100.00
11314;BME280;5712;48.858;9.206;2023-04-02T01:25:18;97418.63;;;8.62;100.00
11314;BME280;5712;48.858;9.206;2023-04-02T01:27:52;97413.97;;;8.66;100.00
11314;BME280;5712;48.858;9.206;2023-04-02T01:30:23;97403.69;;;8.63;100.00
11314;BME280;5712;48.858;9.206;2023-04-02T01:32:51;97413.00;;;8.67;100.00
11314;BME280;5712;48.858;9.206;2023-04-02T01:35:20;97413.97;;;8.66;100.00
11314;BME280;5712;48.858;9.206;2023-04-02T01:37:52;97409.56;;;8.66;100.00
11314;BME280;5712;48.858;9.206;2023-04-02T01:40:30;97421.78;;;8.67;100.00
11314;BME280;5712;48.858;9.206;2023-04-02T01:43:06;97418.78;;;8.72;100.00
11314;BME280;5712;48.858;9.206;2023-04-02T01:45:38;97413.53;;;8.72;100.00
11314;BME280;5712;48.858;9.206;2023-04-02T01:48:05;97416.88;;;8.74;100.00
11314;BME280;5712;48.858;9.206;2023-04-02T01:50:38;97418.44;;;8.76;100.00
11314;BME280;5712;48.858;9.206;2023-04-02T01:53:07;97423.72;;;8.76;100.00
11314;BME280;5712;48.858;9.206;2023-04-02T01:55:39;97422.16;;;8.74;99.45
11314;BME280;5712;48.858;9.206;2023-04-02T01:58:08;97418.78;;;8.72;99.02
11314;BME280;5712;48.858;9.206;2023-04-02T02:00:42;97418.78;;;8.72;98.64
11314;BME280;5712;48.858;9.206;2023-04-02T02:03:11;97413.53;;;8.72;98.47
11314;BME280;5712;48.858;9.206;2023-04-02T02:05:38;97423.09;;;8.73;98.09
11314;BME280;5712;48.858;9.206;2023-04-02T02:08:14;97425.03;;;8.71;98.37
11314;BME280;5712;48.858;9.206;2023-04-02T02:10:44;97431.84;;;8.73;98.46
11314;BME280;5712;48.858;9.206;2023-04-02T02:13:13;97426.69;;;8.72;97.93
11314;BME280;5712;48.858;9.206;2023-04-02T02:15:41;97433.63;;;8.73;98.30
11314;BME280;5712;48.858;9.206;2023-04-02T02:18:10;97425.75;;;8.73;98.07
11314;BME280;5712;48.858;9.206;2023-04-02T02:20:38;97429.13;;;8.75;98.11
11314;BME280;5712;48.858;9.206;2023-04-02T02:23:05;97432.59;;;8.75;98.11
11314;BME280;5712;48.858;9.206;2023-04-02T02:25:34;97436.06;;;8.76;97.04
11314;BME280;5712;48.858;9.206;2023-04-02T02:28:05;97432.25;;;8.80;97.23
11314;BME280;5712;48.858;9.206;2023-04-02T02:30:34;97432.69;;;8.74;96.75
11314;BME280;5712;48.858;9.206;2023-04-02T02:33:06;97436.28;;;8.73;97.15
11314;BME280;5712;48.858;9.206;2023-04-02T02:35:37;97448.50;;;8.74;98.02
11314;BME280;5712;48.858;9.206;2023-04-02T02:38:24;97446.00;;;8.72;97.07
11314;BME280;5712;48.858;9.206;2023-04-02T02:40:57;97441.09;;;8.79;96.87
11314;BME280;5712;48.858;9.206;2023-04-02T02:43:27;97443.88;;;8.77;96.99
11314;BME280;5712;48.858;9.206;2023-04-02T02:45:54;97446.38;;;8.79;97.29
11314;BME280;5712;48.858;9.206;2023-04-02T02:48:33;97455.22;;;8.78;97.67
11314;BME280;5712;48.858;9.206;2023-04-02T02:51:03;97458.22;;;8.73;97.71
11314;BME280;5712;48.858;9.206;2023-04-02T02:53:32;97458.72;;;8.78;97.96
11314;BME280;5712;48.858;9.206;2023-04-02T02:56:11;97456.91;;;8.79;97.88
11314;BME280;5712;48.858;9.206;2023-04-02T02:58:38;97460.50;;;8.78;98.19
11314;BME280;5712;48.858;9.206;2023-04-02T03:01:05;97460.75;;;8.75;98.58
11314;BME280;5712;48.858;9.206;2023-04-02T03:03:33;97462.63;;;8.73;98.75
11314;BME280;5712;48.858;9.206;2023-04-02T03:06:02;97467.44;;;8.79;99.15
11314;BME280;5712;48.858;9.206;2023-04-02T03:08:32;97472.19;;;8.74;99.41
11314;BME280;5712;48.858;9.206;2023-04-02T03:11:04;97467.44;;;8.79;98.97
11314;BME280;5712;48.858;9.206;2023-04-02T03:13:33;97475.97;;;8.82;98.93
11314;BME280;5712;48.858;9.206;2023-04-02T03:16:05;97471.03;;;8.78;99.06
11314;BME280;5712;48.858;9.206;2023-04-02T03:18:41;97471.03;;;8.78;99.19
11314;BME280;5712;48.858;9.206;2023-04-02T03:21:21;97477.47;;;8.74;99.81
11314;BME280;5712;48.858;9.206;2023-04-02T03:23:53;97481.81;;;8.75;100.00
11314;BME280;5712;48.858;9.206;2023-04-02T03:26:25;97483.69;;;8.73;100.00
11314;BME280;5712;48.858;9.206;2023-04-02T03:28:59;97485.59;;;8.71;100.00
11314;BME280;5712;48.858;9.206;2023-04-02T03:31:30;97495.28;;;8.70;100.00
11314;BME280;5712;48.858;9.206;2023-04-02T03:34:03;97498.78;;;8.71;100.00
11314;BME280;5712;48.858;9.206;2023-04-02T03:36:37;97499.63;;;8.71;100.00
11314;BME280;5712;48.858;9.206;2023-04-02T03:39:12;97502.03;;;8.74;100.00
11314;BME280;5712;48.858;9.206;2023-04-02T03:41:42;97503.09;;;8.72;100.00
11314;BME280;5712;48.858;9.206;2023-04-02T03:44:18;97499.75;;;8.70;100.00
11314;BME280;5712;48.858;9.206;2023-04-02T03:46:49;97507.84;;;8.67;100.00
11314;BME280;5712;48.858;9.206;2023-04-02T03:49:27;97508.69;;;8.67;100.00
11314;BME280;5712;48.858;9.206;2023-04-02T03:51:58;97512.16;;;8.68;100.00
11314;BME280;5712;48.858;9.206;2023-04-02T03:54:28;97513.72;;;8.70;100.00
11314;BME280;5712;48.858;9.206;2023-04-02T03:56:55;97518.19;;;8.70;100.00
11314;BME280;5712;48.858;9.206;2023-04-02T03:59:28;97520.81;;;8.70;100.00
11314;BME280;5712;48.858;9.206;2023-04-02T04:01:59;97510.28;;;8.70;100.00
11314;BME280;5712;48.858;9.206;2023-04-02T04:04:29;97523.44;;;8.70;100.00
11314;BME280;5712;48.858;9.206;2023-04-02T04:06:57;97519.13;;;8.69;100.00
11314;BME280;5712;48.858;9.206;2023-04-02T04:09:28;97532.16;;;8.70;100.00
11314;BME280;5712;48.858;9.206;2023-04-02T04:12:06;97524.16;;;8.72;100.00
11314;BME280;5712;48.858;9.206;2023-04-02T04:14:36;97524.88;;;8.74;100.00
11314;BME280;5712;48.858;9.206;2023-04-02T04:17:12;97538.81;;;8.76;100.00
11314;BME280;5712;48.858;9.206;2023-04-02T04:19:43;97537.34;;;8.72;100.00
11314;BME280;5712;48.858;9.206;2023-04-02T04:22:15;97539.34;;;8.81;100.00
11314;BME280;5712;48.858;9.206;2023-04-02T04:24:43;97539.53;;;8.78;100.00
11314;BME280;5712;48.858;9.206;2023-04-02T04:27:17;97543.31;;;8.74;100.00
11314;BME280;5712;48.858;9.206;2023-04-02T04:29:51;97546.72;;;8.76;100.00
11314;BME280;5712;48.858;9.206;2023-04-02T04:32:24;97554.09;;;8.71;100.00
11314;BME280;5712;48.858;9.206;2023-04-02T04:35:01;97556.50;;;8.74;100.00
11314;BME280;5712;48.858;9.206;2023-04-02T04:37:31;97553.75;;;8.75;100.00
11314;BME280;5712;48.858;9.206;2023-04-02T04:40:03;97564.63;;;8.71;100.00
11314;BME280;5712;48.858;9.206;2023-04-02T04:42:33;97569.19;;;8.69;100.00
11314;BME280;5712;48.858;9.206;2023-04-02T04:45:07;97569.28;;;8.67;100.00
11314;BME280;5712;48.858;9.206;2023-04-02T04:47:40;97577.28;;;8.66;100.00
11314;BME280;5712;48.858;9.206;2023-04-02T04:50:15;97585.91;;;8.68;100.00
11314;BME280;5712;48.858;9.206;2023-04-02T04:52:44;97583.06;;;8.71;100.00
11314;BME280;5712;48.858;9.206;2023-04-02T04:55:27;97583.06;;;8.71;100.00
11314;BME280;5712;48.858;9.206;2023-04-02T04:57:58;97584.13;;;8.68;100.00
11314;BME280;5712;48.858;9.206;2023-04-02T05:00:29;97587.38;;;8.72;100.00
11314;BME280;5712;48.858;9.206;2023-04-02T05:03:05;97589.94;;;8.73;100.00
11314;BME280;5712;48.858;9.206;2023-04-02T05:05:39;97589.94;;;8.73;100.00
11314;BME280;5712;48.858;9.206;2023-04-02T05:08:12;97595.19;;;8.73;100.00
11314;BME280;5712;48.858;9.206;2023-04-02T05:10:43;97603.00;;;8.75;100.00
11314;BME280;5712;48.858;9.206;2023-04-02T05:13:15;97599.59;;;8.73;100.00
11314;BME280;5712;48.858;9.206;2023-04-02T05:15:49;97602.25;;;8.73;100.00
11314;BME280;5712;48.858;9.206;2023-04-02T05:18:22;97601.28;;;8.74;100.00
11314;BME280;5712;48.858;9.206;2023-04-02T05:20:54;97607.50;;;8.73;100.00
11314;BME280;5712;48.858;9.206;2023-04-02T05:23:26;97608.69;;;8.69;100.00
11314;BME280;5712;48.858;9.206;2023-04-02T05:25:59;97620.16;;;8.68;100.00
11314;BME280;5712;48.858;9.206;2023-04-02T05:28:31;97622.69;;;8.69;100.00
11314;BME280;5712;48.858;9.206;2023-04-02T05:31:02;97627.34;;;8.66;100.00
11314;BME280;5712;48.858;9.206;2023-04-02T05:33:32;97623.75;;;8.67;100.00
11314;BME280;5712;48.858;9.206;2023-04-02T05:36:02;97634.19;;;8.68;100.00
11314;BME280;5712;48.858;9.206;2023-04-02T05:38:32;97625.31;;;8.69;100.00
11314;BME280;5712;48.858;9.206;2023-04-02T05:41:02;97630.81;;;8.66;100.00
11314;BME280;5712;48.858;9.206;2023-04-02T05:43:32;97633.31;;;8.68;100.00
11314;BME280;5712;48.858;9.206;2023-04-02T05:46:04;97635.13;;;8.67;100.00
11314;BME280;5712;48.858;9.206;2023-04-02T05:48:38;97633.22;;;8.69;100.00
11314;BME280;5712;48.858;9.206;2023-04-02T05:51:15;97640.94;;;8.72;100.00
11314;BME280;5712;48.858;9.206;2023-04-02T05:53:45;97644.28;;;8.74;100.00
11314;BME280;5712;48.858;9.206;2023-04-02T05:56:18;97645.16;;;8.75;100.00
11314;BME280;5712;48.858;9.206;2023-04-02T05:58:47;97651.69;;;8.82;100.00
11314;BME280;5712;48.858;9.206;2023-04-02T06:01:21;97645.44;;;8.83;100.00
11314;BME280;5712;48.858;9.206;2023-04-02T06:03:54;97658.41;;;8.86;100.00
11314;BME280;5712;48.858;9.206;2023-04-02T06:06:39;97665.25;;;8.88;100.00
11314;BME280;5712;48.858;9.206;2023-04-02T06:09:10;97657.97;;;8.92;100.00
11314;BME280;5712;48.858;9.206;2023-04-02T06:11:40;97664.31;;;8.89;100.00
11314;BME280;5712;48.858;9.206;2023-04-02T06:14:11;97670.41;;;8.90;100.00
11314;BME280;5712;48.858;9.206;2023-04-02T06:16:38;97678.22;;;8.91;100.00
11314;BME280;5712;48.858;9.206;2023-04-02T06:19:07;97680.75;;;8.93;100.00
11314;BME280;5712;48.858;9.206;2023-04-02T06:21:43;97682.44;;;8.94;100.00
11314;BME280;5712;48.858;9.206;2023-04-02T06:24:13;97688.44;;;8.96;100.00
11314;BME280;5712;48.858;9.206;2023-04-02T06:26:44;97697.19;;;8.96;100.00
11314;BME280;5712;48.858;9.206;2023-04-02T06:29:18;97695.63;;;8.94;100.00
11314;BME280;5712;48.858;9.206;2023-04-02T06:31:48;97694.44;;;8.98;100.00
11314;BME280;5712;48.858;9.206;2023-04-02T06:34:18;97701.91;;;9.04;100.00
11314;BME280;5712;48.858;9.206;2023-04-02T06:36:47;97700.75;;;9.08;100.00
11314;BME280;5712;48.858;9.206;2023-04-02T06:39:17;97713.94;;;9.08;100.00
11314;BME280;5712;48.858;9.206;2023-04-02T06:41:53;97710.88;;;9.14;100.00
11314;BME280;5712;48.858;9.206;2023-04-02T06:44:23;97714.88;;;9.19;100.00
11314;BME280;5712;48.858;9.206;2023-04-02T06:46:53;97719.31;;;9.19;100.00
11314;BME280;5712;48.858;9.206;2023-04-02T06:49:27;97723.44;;;9.23;100.00
11314;BME280;5712;48.858;9.206;2023-04-02T06:52:00;97727.31;;;9.30;100.00
11314;BME280;5712;48.858;9.206;2023-04-02T06:54:27;97730.69;;;9.32;100.00
11314;BME280;5712;48.858;9.206;2023-04-02T06:56:55;97736.47;;;9.37;100.00
11314;BME280;5712;48.858;9.206;2023-04-02T06:59:23;97734.47;;;9.40;100.00
11314;BME280;5712;48.858;9.206;2023-04-02T07:01:52;97743.63;;;9.47;100.00
11314;BME280;5712;48.858;9.206;2023-04-02T07:04:20;97743.72;;;9.46;100.00
11314;BME280;5712;48.858;9.206;2023-04-02T07:06:47;97744.69;;;9.45;100.00
11314;BME280;5712;48.858;9.206;2023-04-02T07:09:15;97751.34;;;9.50;100.00
11314;BME280;5712;48.858;9.206;2023-04-02T07:11:41;97753.66;;;9.55;100.00
11314;BME280;5712;48.858;9.206;2023-04-02T07:14:10;97761.00;;;9.62;100.00
11314;BME280;5712;48.858;9.206;2023-04-02T07:16:37;97763.31;;;9.67;100.00
11314;BME280;5712;48.858;9.206;2023-04-02T07:19:05;97763.94;;;9.70;100.00
11314;BME280;5712;48.858;9.206;2023-04-02T07:21:31;97764.56;;;9.74;100.00
11314;BME280;5712;48.858;9.206;2023-04-02T07:23:58;97768.16;;;9.73;100.00
11314;BME280;5712;48.858;9.206;2023-04-02T07:26:26;97778.28;;;9.79;100.00
11314;BME280;5712;48.858;9.206;2023-04-02T07:28:53;97773.84;;;9.79;100.00
11314;BME280;5712;48.858;9.206;2023-04-02T07:31:22;97781.66;;;9.81;100.00
11314;BME280;5712;48.858;9.206;2023-04-02T07:33:50;97788.41;;;9.85;100.00
11314;BME280;5712;48.858;9.206;2023-04-02T07:36:19;97788.94;;;9.90;100.00
11314;BME280;5712;48.858;9.206;2023-04-02T07:38:46;97786.50;;;9.87;100.00
11314;BME280;5712;48.858;9.206;2023-04-02T07:41:14;97787.22;;;9.89;100.00
11314;BME280;5712;48.858;9.206;2023-04-02T07:43:42;97789.41;;;9.95;100.00
11314;BME280;5712;48.858;9.206;2023-04-02T07:46:09;97792.81;;;9.97;100.00
11314;BME280;5712;48.858;9.206;2023-04-02T07:48:38;97796.78;;;10.02;100.00
11314;BME280;5712;48.858;9.206;2023-04-02T07:51:13;97799.34;;;10.04;100.00
11314;BME280;5712;48.858;9.206;2023-04-02T07:53:40;97801.22;;;10.02;99.21
11314;BME280;5712;48.858;9.206;2023-04-02T07:56:06;97804.81;;;10.01;98.89
11314;BME280;5712;48.858;9.206;2023-04-02T07:58:33;97816.03;;;10.04;98.54
11314;BME280;5712;48.858;9.206;2023-04-02T08:01:00;97814.34;;;10.03;98.41
11314;BME280;5712;48.858;9.206;2023-04-02T08:03:28;97821.09;;;10.07;98.18
11314;BME280;5712;48.858;9.206;2023-04-02T08:05:56;97812.00;;;10.11;97.45
11314;BME280;5712;48.858;9.206;2023-04-02T08:08:24;97822.44;;;10.13;96.42
11314;BME280;5712;48.858;9.206;2023-04-02T08:10:50;97822.88;;;10.07;96.38
11314;BME280;5712;48.858;9.206;2023-04-02T08:13:17;97819.28;;;10.08;96.25
11314;BME280;5712;48.858;9.206;2023-04-02T08:15:44;97834.94;;;10.11;96.53
11314;BME280;5712;48.858;9.206;2023-04-02T08:18:12;97825.09;;;10.13;96.73
11314;BME280;5712;48.858;9.206;2023-04-02T08:20:39;97833.06;;;10.24;97.12
11314;BME280;5712;48.858;9.206;2023-04-02T08:23:11;97838.97;;;10.27;98.54
11314;BME280;5712;48.858;9.206;2023-04-02T08:25:39;97857.13;;;10.32;99.92
11314;BME280;5712;48.858;9.206;2023-04-02T08:28:06;97856.31;;;10.31;100.00
11314;BME280;5712;48.858;9.206;2023-04-02T08:30:32;97860.22;;;10.26;100.00
11314;BME280;5712;48.858;9.206;2023-04-02T08:32:59;97856.94;;;10.22;100.00
11314;BME280;5712;48.858;9.206;2023-04-02T08:35:27;97867.66;;;10.21;100.00
11314;BME280;5712;48.858;9.206;2023-04-02T08:37:53;97866.69;;;10.22;100.00
11314;BME280;5712;48.858;9.206;2023-04-02T08:40:24;97875.06;;;10.16;100.00
11314;BME280;5712;48.858;9.206;2023-04-02T08:43:03;97872.63;;;10.13;100.00
11314;BME280;5712;48.858;9.206;2023-04-02T08:45:41;97877.69;;;10.16;100.00
11314;BME280;5712;48.858;9.206;2023-04-02T08:48:13;97885.91;;;10.24;100.00
11314;BME280;5712;48.858;9.206;2023-04-02T08:50:43;97879.75;;;10.36;100.00
11314;BME280;5712;48.858;9.206;2023-04-02T08:53:14;97886.06;;;10.46;100.00
11314;BME280;5712;48.858;9.206;2023-04-02T08:55:45;97879.72;;;10.48;100.00
11314;BME280;5712;48.858;9.206;2023-04-02T08:58:25;97881.31;;;10.62;100.00
11314;BME280;5712;48.858;9.206;2023-04-02T09:00:55;97894.09;;;10.68;99.35
11314;BME280;5712;48.858;9.206;2023-04-02T09:03:27;97894.59;;;10.73;99.88
11314;BME280;5712;48.858;9.206;2023-04-02T09:05:56;97894.09;;;10.68;99.56
11314;BME280;5712;48.858;9.206;2023-04-02T09:08:26;97907.66;;;10.63;99.55
11314;BME280;5712;48.858;9.206;2023-04-02T09:10:59;97910.09;;;10.66;100.00
11314;BME280;5712;48.858;9.206;2023-04-02T09:13:29;97916.59;;;10.73;100.00
11314;BME280;5712;48.858;9.206;2023-04-02T09:15:59;97917.66;;;10.71;100.00
11314;BME280;5712;48.858;9.206;2023-04-02T09:18:29;97928.34;;;10.69;100.00
11314;BME280;5712;48.858;9.206;2023-04-02T09:20:59;97923.66;;;10.73;100.00
11314;BME280;5712;48.858;9.206;2023-04-02T09:23:29;97925.97;;;10.77;100.00
11314;BME280;5712;48.858;9.206;2023-04-02T09:25:56;97923.78;;;10.95;99.72
11314;BME280;5712;48.858;9.206;2023-04-02T09:28:22;97920.50;;;11.15;98.41
11314;BME280;5712;48.858;9.206;2023-04-02T09:30:59;97915.63;;;11.32;96.48
11314;BME280;5712;48.858;9.206;2023-04-02T09:33:40;97920.88;;;11.56;94.96
11314;BME280;5712;48.858;9.206;2023-04-02T09:36:17;97918.16;;;11.79;94.15
11314;BME280;5712;48.858;9.206;2023-04-02T09:38:56;97918.91;;;12.03;92.00
11314;BME280;5712;48.858;9.206;2023-04-02T09:41:26;97924.34;;;12.13;90.04
11314;BME280;5712;48.858;9.206;2023-04-02T09:44:12;97922.16;;;12.29;85.95
11314;BME280;5712;48.858;9.206;2023-04-02T09:46:47;97918.81;;;12.16;82.78
11314;BME280;5712;48.858;9.206;2023-04-02T09:49:14;97921.78;;;12.11;82.72
11314;BME280;5712;48.858;9.206;2023-04-02T09:51:44;97934.09;;;12.12;84.91
11314;BME280;5712;48.858;9.206;2023-04-02T09:54:14;97926.16;;;12.12;81.46
11314;BME280;5712;48.858;9.206;2023-04-02T09:56:58;97938.78;;;11.98;84.23
11314;BME280;5712;48.858;9.206;2023-04-02T09:59:26;97931.31;;;12.14;84.59
11314;BME280;5712;48.858;9.206;2023-04-02T10:01:57;97936.63;;;12.25;83.29
11314;BME280;5712;48.858;9.206;2023-04-02T10:04:37;97932.50;;;12.43;82.92
11314;BME280;5712;48.858;9.206;2023-04-02T10:07:30;97935.75;;;12.57;79.19
11314;BME280;5712;48.858;9.206;2023-04-02T10:09:59;97930.78;;;12.64;79.03
11314;BME280;5712;48.858;9.206;2023-04-02T10:12:28;97936.22;;;12.62;77.19
11314;BME280;5712;48.858;9.206;2023-04-02T10:14:56;97935.53;;;12.49;75.48
11314;BME280;5712;48.858;9.206;2023-04-02T10:17:26;97939.75;;;12.41;77.42
11314;BME280;5712;48.858;9.206;2023-04-02T10:19:58;97939.25;;;12.47;77.82
11314;BME280;5712;48.858;9.206;2023-04-02T10:22:32;97940.28;;;12.66;77.24
11314;BME280;5712;48.858;9.206;2023-04-02T10:24:58;97937.03;;;12.63;75.49
11314;BME280;5712;48.858;9.206;2023-04-02T10:27:29;97939.47;;;12.66;74.89
11314;BME280;5712;48.858;9.206;2023-04-02T10:30:07;97936.94;;;12.64;73.47
11314;BME280;5712;48.858;9.206;2023-04-02T10:32:40;97946.94;;;12.61;75.38
11314;BME280;5712;48.858;9.206;2023-04-02T10:35:14;97951.25;;;12.73;76.74
11314;BME280;5712;48.858;9.206;2023-04-02T10:37:56;97948.59;;;12.84;76.53
11314;BME280;5712;48.858;9.206;2023-04-02T10:40:28;97945.06;;;12.94;74.29
11314;BME280;5712;48.858;9.206;2023-04-02T10:43:42;97946.44;;;12.67;74.17
11314;BME280;5712;48.858;9.206;2023-04-02T10:46:18;97962.47;;;12.54;74.71
11314;BME280;5712;48.858;9.206;2023-04-02T10:48:51;97965.03;;;12.56;75.67
11314;BME280;5712;48.858;9.206;2023-04-02T10:51:28;97969.97;;;12.49;75.40
11314;BME280;5712;48.858;9.206;2023-04-02T10:54:02;97962.38;;;12.45;74.21
11314;BME280;5712;48.858;9.206;2023-04-02T10:56:33;97963.13;;;12.36;74.32
11314;BME280;5712;48.858;9.206;2023-04-02T10:59:04;97980.47;;;12.18;76.49
11314;BME280;5712;48.858;9.206;2023-04-02T11:01:33;97980.47;;;12.18;76.40
11314;BME280;5712;48.858;9.206;2023-04-02T11:04:04;97981.16;;;12.20;76.94
11314;BME280;5712;48.858;9.206;2023-04-02T11:06:36;97986.47;;;12.20;75.51
11314;BME280;5712;48.858;9.206;2023-04-02T11:09:14;97986.94;;;12.14;75.53
11314;BME280;5712;48.858;9.206;2023-04-02T11:11:43;98002.25;;;12.21;77.47
11314;BME280;5712;48.858;9.206;2023-04-02T11:14:14;98001.19;;;12.24;77.06
11314;BME280;5712;48.858;9.206;2023-04-02T11:16:42;98005.75;;;12.33;77.62
11314;BME280;5712;48.858;9.206;2023-04-02T11:19:26;97999.75;;;12.42;77.26
11314;BME280;5712;48.858;9.206;2023-04-02T11:21:55;98007.91;;;12.50;77.25
11314;BME280;5712;48.858;9.206;2023-04-02T11:24:34;97994.66;;;12.61;75.11
11314;BME280;5712;48.858;9.206;2023-04-02T11:27:10;98003.09;;;12.55;75.50
11314;BME280;5712;48.858;9.206;2023-04-02T11:29:40;98002.50;;;12.62;75.72
11314;BME280;5712;48.858;9.206;2023-04-02T11:32:21;98001.91;;;12.59;74.23
11314;BME280;5712;48.858;9.206;2023-04-02T11:37:51;98002.47;;;12.84;73.52
11314;BME280;5712;48.858;9.206;2023-04-02T11:40:43;98001.97;;;12.90;71.47
11314;BME280;5712;48.858;9.206;2023-04-02T11:46:37;98003.66;;;13.02;71.17
11314;BME280;5712;48.858;9.206;2023-04-02T11:49:36;98009.53;;;13.28;72.54
11314;BME280;5712;48.858;9.206;2023-04-02T11:52:18;98010.34;;;13.60;70.79
11314;BME280;5712;48.858;9.206;2023-04-02T11:54:54;97992.75;;;13.79;68.01
11314;BME280;5712;48.858;9.206;2023-04-02T11:57:38;97994.72;;;13.77;67.78
11314;BME280;5712;48.858;9.206;2023-04-02T12:00:20;97996.56;;;13.66;66.77
11314;BME280;5712;48.858;9.206;2023-04-02T12:02:59;97996.19;;;13.50;66.71
11314;BME280;5712;48.858;9.206;2023-04-02T12:05:34;98007.81;;;13.38;68.62
11314;BME280;5712;48.858;9.206;2023-04-02T12:08:16;98006.75;;;13.29;67.68
11314;BME280;5712;48.858;9.206;2023-04-02T12:10:52;98015.22;;;13.23;68.18
11314;BME280;5712;48.858;9.206;2023-04-02T12:13:48;98016.41;;;13.19;68.19
11314;BME280;5712;48.858;9.206;2023-04-02T12:16:16;98006.47;;;13.32;67.75
11314;BME280;5712;48.858;9.206;2023-04-02T12:18:43;98019.44;;;13.26;69.10
11314;BME280;5712;48.858;9.206;2023-04-02T12:21:14;98044.16;;;13.15;71.06
11314;BME280;5712;48.858;9.206;2023-04-02T12:23:44;98052.09;;;13.26;75.00
11314;BME280;5712;48.858;9.206;2023-04-02T12:26:29;98070.78;;;13.25;77.11
11314;BME280;5712;48.858;9.206;2023-04-02T12:29:15;98066.03;;;13.08;78.10
11314;BME280;5712;48.858;9.206;2023-04-02T12:31:42;98079.19;;;12.98;78.61
11314;BME280;5712;48.858;9.206;2023-04-02T12:34:13;98069.50;;;12.86;78.84
11314;BME280;5712;48.858;9.206;2023-04-02T12:36:50;98076.38;;;12.78;79.69
11314;BME280;5712;48.858;9.206;2023-04-02T12:39:18;98076.88;;;12.72;78.92
11314;BME280;5712;48.858;9.206;2023-04-02T12:41:45;98093.25;;;12.66;81.85
11314;BME280;5712;48.858;9.206;2023-04-02T12:44:13;98091.09;;;12.71;83.00
11314;BME280;5712;48.858;9.206;2023-04-02T12:46:43;98096.63;;;12.79;83.07
11314;BME280;5712;48.858;9.206;2023-04-02T12:49:20;98088.91;;;12.76;80.50
11314;BME280;5712;48.858;9.206;2023-04-02T12:51:48;98087.59;;;12.70;80.91
11314;BME280;5712;48.858;9.206;2023-04-02T12:54:16;98100.25;;;12.67;80.53
11314;BME280;5712;48.858;9.206;2023-04-02T12:56:44;98106.25;;;12.58;82.62
11314;BME280;5712;48.858;9.206;2023-04-02T12:59:26;98110.72;;;12.57;85.11
11314;BME280;5712;48.858;9.206;2023-04-02T13:01:56;98116.72;;;12.48;85.00
11314;BME280;5712;48.858;9.206;2023-04-02T13:04:23;98117.31;;;12.41;86.72
11314;BME280;5712;48.858;9.206;2023-04-02T13:06:51;98109.72;;;12.25;82.48
11314;BME280;5712;48.858;9.206;2023-04-02T13:09:27;98125.00;;;12.22;85.27
11314;BME280;5712;48.858;9.206;2023-04-02T13:11:55;98133.06;;;11.86;88.86
11314;BME280;5712;48.858;9.206;2023-04-02T13:14:23;98138.50;;;11.72;89.51
11314;BME280;5712;48.858;9.206;2023-04-02T13:16:50;98134.00;;;11.61;89.04
11314;BME280;5712;48.858;9.206;2023-04-02T13:19:23;98138.56;;;11.47;90.88
11314;BME280;5712;48.858;9.206;2023-04-02T13:21:50;98137.22;;;11.41;91.23
11314;BME280;5712;48.858;9.206;2023-04-02T13:24:21;98151.19;;;11.43;91.83
11314;BME280;5712;48.858;9.206;2023-04-02T13:26:49;98153.38;;;11.26;92.45
11314;BME280;5712;48.858;9.206;2023-04-02T13:29:24;98155.91;;;11.15;93.24
11314;BME280;5712;48.858;9.206;2023-04-02T13:31:52;98150.09;;;11.10;93.66
11314;BME280;5712;48.858;9.206;2023-04-02T13:34:21;98155.09;;;11.02;94.01
11314;BME280;5712;48.858;9.206;2023-04-02T13:36:47;98153.41;;;11.01;94.73
11314;BME280;5712;48.858;9.206;2023-04-02T13:39:16;98163.59;;;10.82;96.29
11314;BME280;5712;48.858;9.206;2023-04-02T13:41:46;98164.31;;;10.84;96.50
11314;BME280;5712;48.858;9.206;2023-04-02T13:44:19;98168.34;;;10.77;97.23
11314;BME280;5712;48.858;9.206;2023-04-02T13:46:46;98174.47;;;10.65;98.88
11314;BME280;5712;48.858;9.206;2023-04-02T13:49:13;98168.44;;;10.50;100.00